Time;durP1;ratioP1;P1;durP2;ratioP2;P2;SDS_P1;SDS_P2;PMS_P1;PMS_P2;Temp;Humidity;BMP_temperature;BMP_pressure;BME280_temperature;BME280_humidity;BME280_pressure;Samples;Min_cycle;Max_cycle;Signal;HPM_P1;HPM_P2
2024/02/28 00:01:29;;;;;;;0.10;0.10;;;;;;;8.69;61.47;101232.44;7356726;19;20020;-62
2024/02/28 00:03:55;;;;;;;0.10;0.10;;;;;;;8.67;61.18;101226.34;7366446;19;20015;-62
2024/02/28 00:06:20;;;;;;;0.10;0.10;;;;;;;8.66;60.84;101229.84;7355011;19;20010;-61
2024/02/28 00:08:46;;;;;;;0.10;0.10;;;;;;;8.49;60.83;101199.56;7366425;19;20027;-62
2024/02/28 00:11:11;;;;;;;0.10;0.10;;;;;;;8.61;60.98;101229.84;7357121;19;20378;-62
2024/02/28 00:13:37;;;;;;;0.10;0.10;;;;;;;8.58;61.16;101222.94;7362351;19;20042;-62
2024/02/28 00:16:03;;;;;;;0.10;0.10;;;;;;;8.57;61.68;101230.78;7359843;19;20006;-62
2024/02/28 00:18:30;;;;;;;0.10;0.10;;;;;;;8.54;61.81;101216.03;7365034;19;20018;-61
2024/02/28 00:20:55;;;;;;;0.10;0.10;;;;;;;8.54;62.23;101209.97;7362641;19;20475;-62
2024/02/28 00:23:20;;;;;;;0.10;0.10;;;;;;;8.52;62.01;101191.75;7365110;19;20500;-62
2024/02/28 00:25:46;;;;;;;0.10;0.10;;;;;;;8.53;62.41;101201.28;7366134;19;20017;-62
2024/02/28 00:28:12;;;;;;;0.10;0.10;;;;;;;8.53;61.90;101209.09;7364797;19;20514;-61
2024/02/28 00:30:37;;;;;;;0.10;0.10;;;;;;;8.53;62.46;101203.03;7362198;19;20379;-62
2024/02/28 00:33:02;;;;;;;0.10;0.10;;;;;;;8.52;61.93;101202.16;7360785;19;20066;-62
2024/02/28 00:35:29;;;;;;;0.10;0.10;;;;;;;8.53;62.15;101195.22;7362861;19;20081;-62
2024/02/28 00:37:55;;;;;;;0.00;0.00;;;;;;;8.52;62.07;101196.97;7361131;19;20031;-62
2024/02/28 00:40:20;;;;;;;0.00;0.00;;;;;;;8.51;61.79;101199.56;7363867;19;20018;-62
2024/02/28 00:42:46;;;;;;;0.10;0.10;;;;;;;8.50;62.17;101198.69;7364346;19;20485;-62
2024/02/28 00:45:11;;;;;;;0.10;0.10;;;;;;;8.48;62.20;101190.03;7364820;19;20010;-63
2024/02/28 00:47:37;;;;;;;0.08;0.08;;;;;;;8.49;62.22;101175.28;7361701;19;20018;-61
2024/02/28 00:50:03;;;;;;;0.10;0.10;;;;;;;8.50;62.38;101193.47;7358146;19;20028;-62
2024/02/28 00:52:31;;;;;;;0.10;0.10;;;;;;;8.48;62.33;101195.25;7363645;19;20014;-62
2024/02/28 00:54:56;;;;;;;0.10;0.10;;;;;;;8.46;62.60;101196.97;7365113;19;20627;-62
2024/02/28 00:57:22;;;;;;;0.08;0.08;;;;;;;8.44;62.43;101183.13;7355093;19;20257;-62
2024/02/28 00:59:48;;;;;;;0.10;0.10;;;;;;;8.45;62.65;101192.66;7358982;19;20018;-62
2024/02/28 01:02:13;;;;;;;0.10;0.10;;;;;;;8.46;62.73;101201.31;7357763;19;20424;-61
2024/02/28 01:04:39;;;;;;;0.10;0.10;;;;;;;8.43;62.83;101197.00;7364093;19;20018;-62
2024/02/28 01:07:05;;;;;;;0.10;0.10;;;;;;;8.45;62.74;101204.81;7367366;19;20006;-62
2024/02/28 01:09:30;;;;;;;0.10;0.10;;;;;;;8.45;62.96;101205.66;7364273;19;20038;-62
2024/02/28 01:11:56;;;;;;;0.00;0.00;;;;;;;8.45;63.41;101205.66;7368615;19;20467;-62
2024/02/28 01:14:21;;;;;;;0.10;0.10;;;;;;;8.46;63.19;101191.78;7369559;19;20790;-62
2024/02/28 01:16:46;;;;;;;0.00;0.00;;;;;;;8.48;63.55;101186.56;7361329;19;20007;-62
2024/02/28 01:19:12;;;;;;;0.10;0.10;;;;;;;8.48;62.27;101195.25;7363601;19;20046;-62
2024/02/28 01:21:39;;;;;;;0.10;0.10;;;;;;;8.48;62.76;101190.03;7370015;19;20011;-62
2024/02/28 01:24:05;;;;;;;0.00;0.00;;;;;;;8.44;62.46;101193.53;7372087;19;20014;-62
2024/02/28 01:26:30;;;;;;;0.00;0.00;;;;;;;8.46;62.63;101186.56;7366679;19;20020;-61
2024/02/28 01:28:55;;;;;;;0.10;0.10;;;;;;;8.44;62.39;101182.25;7366706;19;20113;-62
2024/02/28 01:31:21;;;;;;;0.10;0.10;;;;;;;8.43;62.68;101181.41;7362482;19;20007;-61
2024/02/28 01:33:46;;;;;;;0.10;0.10;;;;;;;8.43;62.74;101189.22;7363314;19;20038;-62
2024/02/28 01:36:12;;;;;;;0.10;0.10;;;;;;;8.40;63.07;101181.41;7369523;19;20030;-62
2024/02/28 01:38:37;;;;;;;0.10;0.10;;;;;;;8.42;63.42;101184.88;7366723;19;20633;-62
2024/02/28 01:41:05;;;;;;;0.10;0.10;;;;;;;8.45;63.03;101190.03;7370566;19;20012;-61
2024/02/28 01:43:30;;;;;;;0.10;0.10;;;;;;;8.47;63.20;101185.72;7370704;19;20018;-62
2024/02/28 01:45:58;;;;;;;0.10;0.10;;;;;;;8.47;63.71;101172.69;7361394;19;20007;-61
2024/02/28 01:48:23;;;;;;;0.10;0.10;;;;;;;8.47;63.67;101162.28;7370106;19;20011;-62
2024/02/28 01:50:49;;;;;;;0.10;0.10;;;;;;;8.48;63.32;101168.34;7363237;19;20098;-62
2024/02/28 01:53:14;;;;;;;0.00;0.00;;;;;;;8.52;63.41;101180.47;7371713;19;20033;-62
2024/02/28 01:55:40;;;;;;;0.10;0.10;;;;;;;8.37;63.00;101144.16;7371214;19;20539;-62
2024/02/28 01:58:06;;;;;;;0.10;0.10;;;;;;;8.50;63.34;101159.66;7370324;19;20474;-61
2024/02/28 02:00:37;;;;;;;0.10;0.10;;;;;;;8.57;63.75;101163.97;7366566;19;20025;-62
2024/02/28 02:03:03;;;;;;;0.10;0.10;;;;;;;8.58;63.50;101170.88;7372009;19;20019;-61
2024/02/28 02:05:29;;;;;;;0.10;0.10;;;;;;;8.59;63.28;101166.53;7370305;19;20006;-61
2024/02/28 02:07:57;;;;;;;0.10;0.10;;;;;;;8.62;63.55;101176.06;7368496;19;20021;-62
2024/02/28 02:10:23;;;;;;;0.10;0.10;;;;;;;8.63;63.56;101185.63;7370288;19;20427;-62
2024/02/28 02:12:48;;;;;;;0.00;0.00;;;;;;;8.64;63.39;101183.00;7363650;19;20014;-62
2024/02/28 02:15:14;;;;;;;0.10;0.10;;;;;;;8.66;63.86;101193.38;7366715;19;20013;-63
2024/02/28 02:17:39;;;;;;;0.10;0.10;;;;;;;8.67;63.81;101188.19;7365854;19;20497;-63
2024/02/28 02:20:06;;;;;;;0.10;0.10;;;;;;;8.67;63.81;101176.88;7368193;19;20014;-61
2024/02/28 02:22:38;;;;;;;0.00;0.00;;;;;;;8.72;63.82;101185.56;7370968;19;20042;-62
2024/02/28 02:25:04;;;;;;;0.10;0.10;;;;;;;8.72;63.66;101182.94;7370388;19;20117;-61
2024/02/28 02:27:29;;;;;;;0.10;0.10;;;;;;;8.75;63.69;101188.13;7367080;19;20093;-62
2024/02/28 02:29:55;;;;;;;0.10;0.10;;;;;;;8.75;63.26;101162.06;7367585;19;20043;-61
2024/02/28 02:32:20;;;;;;;0.10;0.10;;;;;;;8.76;63.29;101153.38;7369575;19;20026;-62
2024/02/28 02:34:46;;;;;;;0.00;0.00;;;;;;;8.74;63.43;101150.81;7354629;19;20049;-62
2024/02/28 02:37:11;;;;;;;0.10;0.10;;;;;;;8.78;63.01;101151.66;7367854;19;20086;-62
2024/02/28 02:39:36;;;;;;;0.10;0.10;;;;;;;8.79;63.06;101129.94;7367124;19;20024;-62
2024/02/28 02:42:02;;;;;;;0.00;0.00;;;;;;;8.80;62.70;101121.25;7368712;19;20485;-62
2024/02/28 02:44:27;;;;;;;0.10;0.10;;;;;;;8.60;63.08;101084.97;7368357;19;20509;-63
2024/02/28 02:46:53;;;;;;;0.10;0.10;;;;;;;8.78;62.49;101115.19;7370246;19;20067;-62
2024/02/28 02:49:18;;;;;;;0.00;0.00;;;;;;;8.79;62.24;101101.28;7366246;19;20006;-62
2024/02/28 02:51:44;;;;;;;0.10;0.10;;;;;;;8.79;62.48;101080.47;7358962;19;20014;-61
2024/02/28 02:54:10;;;;;;;0.03;0.03;;;;;;;8.79;62.41;101070.03;7368725;19;20010;-62
2024/02/28 02:56:36;;;;;;;0.05;0.05;;;;;;;8.79;62.49;101059.63;7368935;19;20038;-62
2024/02/28 02:59:01;;;;;;;0.00;0.00;;;;;;;8.78;62.40;101055.31;7360055;19;20797;-62
2024/02/28 03:01:26;;;;;;;0.10;0.10;;;;;;;8.78;62.20;101055.31;7367906;19;20615;-62
2024/02/28 03:03:52;;;;;;;0.10;0.10;;;;;;;8.78;62.13;101037.06;7368785;19;20042;-62
2024/02/28 03:06:18;;;;;;;0.10;0.10;;;;;;;8.68;62.60;101006.81;7365876;19;20030;-62
2024/02/28 03:08:43;;;;;;;0.00;0.00;;;;;;;8.77;62.54;101024.94;7368021;19;20021;-62
2024/02/28 03:11:08;;;;;;;0.10;0.10;;;;;;;8.78;62.58;101026.66;7358710;19;20029;-61
2024/02/28 03:13:34;;;;;;;0.00;0.00;;;;;;;8.78;62.38;101022.31;7365231;19;20801;-62
2024/02/28 03:15:59;;;;;;;0.10;0.10;;;;;;;8.76;62.96;101018.84;7366057;19;20027;-62
2024/02/28 03:18:25;;;;;;;0.10;0.10;;;;;;;8.79;62.58;101017.97;7368585;19;20014;-62
2024/02/28 03:20:50;;;;;;;0.10;0.10;;;;;;;8.79;63.12;101008.41;7357536;19;20002;-62
2024/02/28 03:23:16;;;;;;;0.10;0.10;;;;;;;8.78;63.26;101005.84;7366474;19;20015;-61
2024/02/28 03:25:41;;;;;;;0.10;0.10;;;;;;;8.80;63.45;101012.72;7362076;19;20037;-62
2024/02/28 03:28:07;;;;;;;0.10;0.10;;;;;;;8.81;63.35;101005.78;7364890;19;20006;-62
2024/02/28 03:30:32;;;;;;;0.10;0.10;;;;;;;8.82;62.93;101007.53;7364605;19;20010;-62
2024/02/28 03:32:57;;;;;;;0.10;0.10;;;;;;;8.83;62.99;101007.50;7366519;19;20022;-62
2024/02/28 03:35:23;;;;;;;0.00;0.00;;;;;;;8.84;63.59;101004.00;7364831;19;20014;-62
2024/02/28 03:37:48;;;;;;;0.08;0.08;;;;;;;8.87;63.83;101005.75;7366711;19;21071;-61
2024/02/28 03:40:14;;;;;;;0.10;0.10;;;;;;;8.83;63.44;100985.81;7366787;19;20751;-62
2024/02/28 03:42:40;;;;;;;0.10;0.10;;;;;;;8.89;63.46;100990.09;7364892;19;20010;-62
2024/02/28 03:45:06;;;;;;;0.00;0.00;;;;;;;8.90;63.36;100987.47;7365638;19;20014;-62
2024/02/28 03:47:31;;;;;;;0.10;0.10;;;;;;;8.86;63.35;100966.66;7361706;19;20032;-62
2024/02/28 03:49:57;;;;;;;0.10;0.10;;;;;;;8.94;62.69;100970.06;7366268;19;20006;-62
2024/02/28 03:52:23;;;;;;;0.10;0.10;;;;;;;8.95;62.41;100967.44;7366890;19;20792;-62
2024/02/28 03:54:49;;;;;;;0.00;0.00;;;;;;;8.95;62.02;100967.44;7366730;19;20011;-62
2024/02/28 03:57:14;;;;;;;0.10;0.10;;;;;;;8.97;62.07;100951.78;7363984;19;20021;-62
2024/02/28 03:59:41;;;;;;;0.10;0.10;;;;;;;8.97;62.50;100949.16;7365199;19;20021;-62
2024/02/28 04:02:06;;;;;;;0.07;0.07;;;;;;;8.96;62.41;100937.88;7366720;19;20411;-62
2024/02/28 04:04:32;;;;;;;0.03;0.03;;;;;;;8.99;63.04;100937.88;7365187;19;20488;-62
2024/02/28 04:06:57;;;;;;;0.00;0.00;;;;;;;9.00;62.88;100928.31;7364638;19;20006;-63
2024/02/28 04:09:23;;;;;;;0.10;0.10;;;;;;;8.99;62.82;100914.44;7363343;19;20014;-62
2024/02/28 04:11:48;;;;;;;0.00;0.00;;;;;;;9.02;63.15;100909.19;7364449;19;20015;-62
2024/02/28 04:14:14;;;;;;;0.10;0.10;;;;;;;9.03;63.05;100908.31;7358158;19;20359;-62
2024/02/28 04:16:45;;;;;;;0.10;0.10;;;;;;;9.04;63.33;100899.59;7340364;19;20026;-62
2024/02/28 04:19:11;;;;;;;0.10;0.10;;;;;;;9.06;63.03;100903.03;7362688;19;20010;-62
2024/02/28 04:21:37;;;;;;;0.10;0.10;;;;;;;9.02;63.04;100901.38;7364083;19;20019;-62
2024/02/28 04:24:04;;;;;;;0.10;0.10;;;;;;;9.06;63.44;100908.25;7367347;19;20391;-62
2024/02/28 04:26:29;;;;;;;0.00;0.00;;;;;;;9.07;63.40;100898.69;7358277;19;20018;-62
2024/02/28 04:28:56;;;;;;;0.10;0.10;;;;;;;8.99;62.67;100885.78;7363491;19;20010;-62
2024/02/28 04:31:21;;;;;;;0.10;0.10;;;;;;;9.08;62.74;100900.44;7363061;19;20058;-62
2024/02/28 04:33:47;;;;;;;0.05;0.05;;;;;;;9.07;63.10;100894.34;7367252;19;20010;-62
2024/02/28 04:36:12;;;;;;;0.10;0.10;;;;;;;9.08;62.24;100887.41;7363770;19;20011;-62
2024/02/28 04:38:37;;;;;;;0.10;0.10;;;;;;;9.07;62.69;100876.13;7364345;19;20014;-61
2024/02/28 04:41:03;;;;;;;0.10;0.10;;;;;;;9.07;62.25;100868.31;7364593;19;20018;-62
2024/02/28 04:43:28;;;;;;;0.10;0.10;;;;;;;9.07;62.10;100867.41;7363591;19;20014;-62
2024/02/28 04:45:54;;;;;;;0.10;0.10;;;;;;;9.07;61.41;100863.09;7365331;19;20022;-62
2024/02/28 04:48:19;;;;;;;0.10;0.10;;;;;;;9.06;61.29;100855.28;7361366;19;20018;-62
2024/02/28 04:50:44;;;;;;;0.10;0.10;;;;;;;9.07;61.24;100860.50;7356657;19;20485;-61
2024/02/28 04:53:10;;;;;;;0.10;0.10;;;;;;;9.08;60.97;100853.53;7363462;19;20014;-62
2024/02/28 04:55:35;;;;;;;0.10;0.10;;;;;;;9.08;61.31;100846.59;7363945;19;20010;-62
2024/02/28 04:58:01;;;;;;;0.10;0.10;;;;;;;9.07;61.01;100831.84;7363237;19;20030;-61
2024/02/28 05:00:26;;;;;;;0.10;0.10;;;;;;;8.97;61.46;100812.00;7359936;19;20006;-62
2024/02/28 05:02:52;;;;;;;0.10;0.10;;;;;;;9.09;61.20;100824.00;7363325;19;20072;-62
2024/02/28 05:05:17;;;;;;;0.00;0.00;;;;;;;9.11;60.73;100822.22;7357184;19;20078;-62
2024/02/28 05:07:43;;;;;;;0.05;0.05;;;;;;;9.14;61.45;100823.94;7364327;19;20312;-62
2024/02/28 05:10:08;;;;;;;0.10;0.10;;;;;;;9.16;60.82;100824.75;7359973;19;20006;-62
2024/02/28 05:12:34;;;;;;;0.10;0.10;;;;;;;9.17;61.02;100801.28;7365260;19;20037;-62
2024/02/28 05:15:00;;;;;;;0.08;0.08;;;;;;;9.11;61.17;100790.94;7363555;19;20714;-62
2024/02/28 05:17:25;;;;;;;0.00;0.00;;;;;;;9.23;61.07;100797.75;7363739;19;20021;-62
2024/02/28 05:19:51;;;;;;;0.10;0.10;;;;;;;9.24;61.38;100786.44;7359832;19;20375;-62
2024/02/28 05:22:16;;;;;;;0.10;0.10;;;;;;;9.26;61.08;100782.03;7363048;19;20049;-62
2024/02/28 05:24:43;;;;;;;0.10;0.10;;;;;;;9.26;60.87;100769.00;7363083;19;19998;-62
2024/02/28 05:27:09;;;;;;;0.00;0.00;;;;;;;9.27;61.50;100757.69;7359595;19;20018;-62
2024/02/28 05:29:34;;;;;;;0.00;0.00;;;;;;;9.28;61.39;100751.63;7364669;19;20021;-62
2024/02/28 05:32:00;;;;;;;0.10;0.10;;;;;;;9.28;61.37;100747.28;7357942;19;20035;-62
2024/02/28 05:34:25;;;;;;;0.10;0.10;;;;;;;9.26;62.08;100738.59;7365923;19;20852;-62
2024/02/28 05:36:51;;;;;;;0.10;0.10;;;;;;;9.28;62.23;100741.19;7360531;19;20394;-62
2024/02/28 05:39:16;;;;;;;0.10;0.10;;;;;;;9.29;62.50;100742.91;7362489;19;20019;-62
2024/02/28 05:41:41;;;;;;;0.10;0.10;;;;;;;9.26;63.21;100742.94;7364044;19;20007;-65
2024/02/28 05:44:08;;;;;;;0.10;0.10;;;;;;;9.22;63.72;100741.28;7360447;19;20019;-62
2024/02/28 05:46:33;;;;;;;0.10;0.10;;;;;;;9.19;63.77;100731.78;7361499;19;20007;-62
2024/02/28 05:48:59;;;;;;;0.00;0.00;;;;;;;9.18;64.06;100724.00;7357761;19;20037;-62
2024/02/28 05:51:24;;;;;;;0.10;0.10;;;;;;;9.15;64.68;100729.25;7361785;19;20018;-62
2024/02/28 05:53:51;;;;;;;0.00;0.00;;;;;;;9.14;64.59;100727.53;7358538;19;20006;-62
2024/02/28 05:56:19;;;;;;;0.10;0.10;;;;;;;9.13;64.69;100725.81;7368823;19;20011;-62
2024/02/28 05:58:45;;;;;;;0.10;0.10;;;;;;;9.11;65.22;100728.44;7370194;19;20018;-61
2024/02/28 06:01:13;;;;;;;0.10;0.10;;;;;;;9.13;64.71;100725.81;7330892;19;19998;-62
2024/02/28 06:03:38;;;;;;;0.10;0.10;;;;;;;8.99;64.95;100687.81;7372141;19;20017;-62
2024/02/28 06:06:04;;;;;;;0.08;0.08;;;;;;;9.13;65.25;100710.19;7369304;19;20107;-63
2024/02/28 06:08:34;;;;;;;0.00;0.00;;;;;;;9.13;65.36;100705.84;7371855;19;20018;-62
2024/02/28 06:11:00;;;;;;;0.10;0.10;;;;;;;9.09;66.06;100699.81;7369444;19;20010;-62
2024/02/28 06:13:26;;;;;;;0.10;0.10;;;;;;;9.01;66.01;100686.03;7367995;19;20066;-62
2024/02/28 06:15:52;;;;;;;0.10;0.10;;;;;;;9.06;66.27;100679.00;7369042;19;20003;-62
2024/02/28 06:18:17;;;;;;;0.10;0.10;;;;;;;9.01;66.78;100675.63;7366842;19;20362;-62
2024/02/28 06:20:42;;;;;;;0.10;0.10;;;;;;;8.98;66.81;100667.88;7370507;19;20007;-63
2024/02/28 06:23:08;;;;;;;0.10;0.10;;;;;;;8.95;65.92;100649.69;7370781;19;20041;-64
2024/02/28 06:25:34;;;;;;;0.03;0.03;;;;;;;8.89;66.84;100628.97;7367933;19;20010;-63
2024/02/28 06:28:01;;;;;;;0.10;0.10;;;;;;;8.82;66.22;100609.13;7368497;19;20030;-62
2024/02/28 06:30:27;;;;;;;0.08;0.08;;;;;;;8.76;66.72;100617.88;7369657;19;20075;-62
2024/02/28 06:32:52;;;;;;;0.10;0.10;;;;;;;8.71;67.36;100608.44;7362669;19;20041;-63
2024/02/28 06:35:18;;;;;;;0.00;0.00;;;;;;;8.66;67.06;100620.66;7367544;19;20010;-63
2024/02/28 06:37:49;;;;;;;0.10;0.10;;;;;;;8.61;67.53;100617.28;7369710;19;20468;-62
2024/02/28 06:40:15;;;;;;;0.08;0.08;;;;;;;8.55;67.15;100606.06;7365918;19;20027;-62
2024/02/28 06:42:40;;;;;;;0.00;0.00;;;;;;;8.51;67.94;100607.00;7370327;19;20014;-62
2024/02/28 06:45:06;;;;;;;0.00;0.00;;;;;;;8.47;68.10;100617.50;7364854;19;20029;-63
2024/02/28 06:47:32;;;;;;;0.10;0.10;;;;;;;8.44;67.80;100604.53;7365952;19;20138;-62
2024/02/28 06:49:58;;;;;;;0.05;0.05;;;;;;;8.43;67.92;100614.09;7366269;19;20093;-62
2024/02/28 06:52:23;;;;;;;0.10;0.10;;;;;;;8.42;68.36;100616.72;7366998;19;20018;-63
2024/02/28 06:54:49;;;;;;;0.10;0.10;;;;;;;8.42;68.20;100616.72;7369830;19;20003;-62
2024/02/28 06:57:14;;;;;;;0.10;0.10;;;;;;;8.40;68.70;100614.13;7366689;19;20759;-63
2024/02/28 06:59:40;;;;;;;0.05;0.05;;;;;;;8.41;68.95;100607.16;7362877;19;20082;-63
2024/02/28 07:02:05;;;;;;;0.10;0.10;;;;;;;8.42;68.93;100609.78;7368237;19;20014;-63
2024/02/28 07:04:31;;;;;;;0.10;0.10;;;;;;;8.43;69.54;100598.47;7369839;19;20098;-63
2024/02/28 07:06:56;;;;;;;0.10;0.10;;;;;;;8.45;69.48;100591.50;7359681;19;20019;-63
2024/02/28 07:09:25;;;;;;;0.10;0.10;;;;;;;8.47;69.49;100579.34;7369606;19;20372;-62
2024/02/28 07:11:51;;;;;;;0.10;0.10;;;;;;;8.49;69.27;100582.75;7355529;19;20046;-63
2024/02/28 07:14:16;;;;;;;0.10;0.10;;;;;;;8.52;69.32;100582.72;7368204;19;20840;-63
2024/02/28 07:16:41;;;;;;;0.10;0.10;;;;;;;8.55;69.37;100587.84;7360170;19;20003;-62
2024/02/28 07:19:07;;;;;;;0.10;0.10;;;;;;;8.56;69.69;100579.16;7365945;19;20035;-63
2024/02/28 07:21:33;;;;;;;0.10;0.10;;;;;;;8.61;69.57;100578.22;7367439;19;20089;-63
2024/02/28 07:23:58;;;;;;;0.10;0.10;;;;;;;8.63;69.68;100571.28;7366470;19;20066;-63
2024/02/28 07:26:24;;;;;;;0.10;0.10;;;;;;;8.65;69.11;100561.69;7366552;19;20041;-63
2024/02/28 07:28:49;;;;;;;0.10;0.10;;;;;;;8.65;68.87;100559.94;7367003;19;20457;-63
2024/02/28 07:31:19;;;;;;;0.10;0.10;;;;;;;8.35;68.96;100514.44;7366536;19;20025;-62
2024/02/28 07:33:45;;;;;;;0.10;0.10;;;;;;;8.67;69.51;100575.50;7364145;19;20489;-62
2024/02/28 07:36:11;;;;;;;0.10;0.10;;;;;;;8.67;69.42;100570.31;7367455;19;20022;-63
2024/02/28 07:38:36;;;;;;;0.10;0.10;;;;;;;8.66;69.57;100569.44;7358991;19;20031;-63
2024/02/28 07:41:02;;;;;;;0.08;0.08;;;;;;;8.67;69.98;100566.00;7363104;19;20023;-63
2024/02/28 07:43:28;;;;;;;0.10;0.10;;;;;;;8.68;69.50;100562.50;7363289;19;20475;-62
2024/02/28 07:45:54;;;;;;;0.10;0.10;;;;;;;8.69;69.29;100556.41;7365729;19;20007;-63
2024/02/28 07:48:19;;;;;;;0.10;0.10;;;;;;;8.68;69.84;100546.03;7359175;19;20007;-62
2024/02/28 07:50:45;;;;;;;0.05;0.05;;;;;;;8.69;69.56;100552.94;7360369;19;20007;-63
2024/02/28 07:53:10;;;;;;;0.05;0.05;;;;;;;8.70;69.99;100546.84;7362061;19;20033;-63
2024/02/28 07:55:36;;;;;;;0.10;0.10;;;;;;;8.69;69.64;100532.97;7365688;19;20007;-62
2024/02/28 07:58:01;;;;;;;0.10;0.10;;;;;;;8.73;69.65;100544.19;7366132;19;20010;-62
2024/02/28 08:00:26;;;;;;;0.10;0.10;;;;;;;8.74;69.58;100536.34;7360322;19;20021;-62
2024/02/28 08:02:52;;;;;;;0.00;0.00;;;;;;;8.75;69.79;100532.00;7365196;19;20030;-62
2024/02/28 08:05:18;;;;;;;0.10;0.10;;;;;;;8.77;70.00;100530.25;7362584;19;20042;-63
2024/02/28 08:07:43;;;;;;;0.10;0.10;;;;;;;8.79;69.97;100525.84;7364927;19;20018;-61
2024/02/28 08:10:10;;;;;;;0.10;0.10;;;;;;;8.82;70.29;100528.41;7364362;19;20026;-63
2024/02/28 08:12:36;;;;;;;0.10;0.10;;;;;;;8.84;70.23;100539.66;7366443;19;20023;-63
2024/02/28 08:15:02;;;;;;;0.00;0.00;;;;;;;8.87;70.33;100525.69;7356132;19;20021;-63
2024/02/28 08:17:28;;;;;;;0.10;0.10;;;;;;;8.87;70.43;100510.97;7363181;19;20033;-62
2024/02/28 08:19:54;;;;;;;0.10;0.10;;;;;;;8.88;70.49;100499.66;7360108;19;20864;-62
2024/02/28 08:22:20;;;;;;;0.10;0.10;;;;;;;8.95;70.64;100498.63;7362155;19;20081;-61
2024/02/28 08:24:45;;;;;;;0.10;0.10;;;;;;;9.00;70.33;100506.38;7358446;19;20029;-62
2024/02/28 08:27:10;;;;;;;0.10;0.10;;;;;;;9.04;70.44;100511.47;7365235;19;20018;-63
2024/02/28 08:29:43;;;;;;;0.10;0.10;;;;;;;9.09;70.24;100507.03;7359743;19;20044;-63
2024/02/28 08:32:09;;;;;;;0.10;0.10;;;;;;;9.15;70.30;100494.78;7359155;19;20022;-62
2024/02/28 08:34:35;;;;;;;0.10;0.10;;;;;;;9.21;70.19;100494.66;7365825;19;20494;-63
2024/02/28 08:37:00;;;;;;;0.10;0.10;;;;;;;9.26;70.10;100485.00;7337500;19;20018;-62
2024/02/28 08:39:26;;;;;;;0.05;0.05;;;;;;;9.29;70.33;100477.97;7360069;19;20002;-62
2024/02/28 08:41:51;;;;;;;0.10;0.10;;;;;;;9.40;69.91;100485.56;7363975;19;20006;-63
2024/02/28 08:44:17;;;;;;;0.10;0.10;;;;;;;9.47;70.57;100491.50;7362682;19;20110;-63
2024/02/28 08:46:43;;;;;;;0.10;0.10;;;;;;;9.52;70.29;100477.47;7366067;19;20790;-62
2024/02/28 08:49:08;;;;;;;0.10;0.10;;;;;;;9.59;70.11;100489.50;7362343;19;20018;-62
2024/02/28 08:51:34;;;;;;;0.10;0.10;;;;;;;9.66;70.68;100476.31;7360947;19;20045;-63
2024/02/28 08:54:00;;;;;;;0.10;0.10;;;;;;;9.71;70.44;100479.69;7363267;19;20051;-64
2024/02/28 08:56:25;;;;;;;0.10;0.10;;;;;;;9.64;70.27;100457.25;7366399;19;20010;-62
2024/02/28 08:58:51;;;;;;;0.10;0.10;;;;;;;9.50;70.54;100423.69;7364717;19;20002;-63
2024/02/28 09:01:16;;;;;;;0.10;0.10;;;;;;;9.89;70.19;100468.84;7365812;19;20475;-62
2024/02/28 09:03:42;;;;;;;0.10;0.10;;;;;;;9.97;70.05;100471.25;7360178;19;20393;-63
2024/02/28 09:06:08;;;;;;;0.10;0.10;;;;;;;10.04;69.98;100467.63;7366289;19;20026;-63
2024/02/28 09:08:33;;;;;;;0.10;0.10;;;;;;;10.11;69.25;100471.78;7362647;19;20006;-62
2024/02/28 09:10:58;;;;;;;0.10;0.10;;;;;;;10.17;69.75;100462.94;7357992;19;21282;-63
2024/02/28 09:13:24;;;;;;;0.10;0.10;;;;;;;10.25;70.38;100476.69;7359761;19;20012;-63
2024/02/28 09:15:49;;;;;;;0.10;0.10;;;;;;;10.10;69.76;100437.00;7366605;19;20377;-64
2024/02/28 09:18:16;;;;;;;0.05;0.05;;;;;;;10.26;69.80;100447.09;7359073;19;20009;-64
2024/02/28 09:20:41;;;;;;;0.10;0.10;;;;;;;10.42;70.05;100464.06;7365614;19;20010;-63
2024/02/28 09:23:07;;;;;;;0.10;0.10;;;;;;;10.49;69.79;100469.97;7362580;19;20022;-63
2024/02/28 09:25:34;;;;;;;0.10;0.10;;;;;;;10.52;70.24;100455.09;7363317;19;20015;-65
2024/02/28 09:28:00;;;;;;;0.00;0.00;;;;;;;10.57;69.93;100453.22;7359130;19;20471;-63
2024/02/28 09:30:26;;;;;;;0.10;0.10;;;;;;;10.64;69.33;100452.19;7369775;19;20030;-65
2024/02/28 09:32:51;;;;;;;0.10;0.10;;;;;;;10.70;69.50;100455.53;7365869;19;20006;-63
2024/02/28 09:35:17;;;;;;;0.10;0.10;;;;;;;10.75;69.58;100445.81;7369625;19;20042;-64
2024/02/28 09:37:42;;;;;;;0.10;0.10;;;;;;;10.77;69.96;100455.28;7367828;19;19999;-64
2024/02/28 09:40:12;;;;;;;0.10;0.10;;;;;;;10.84;69.85;100450.75;7369230;19;20932;-64
2024/02/28 09:42:38;;;;;;;0.08;0.08;;;;;;;10.86;69.90;100454.19;7370156;19;20046;-64
2024/02/28 09:45:04;;;;;;;0.10;0.10;;;;;;;10.89;70.43;100454.09;7368544;19;20006;-64
2024/02/28 09:47:30;;;;;;;0.10;0.10;;;;;;;10.87;69.89;100445.44;7367042;19;20018;-64
2024/02/28 09:49:58;;;;;;;0.10;0.10;;;;;;;10.97;69.90;100452.13;7370444;19;20538;-64
2024/02/28 09:52:24;;;;;;;0.10;0.10;;;;;;;11.02;70.17;100439.78;7358341;19;20347;-64
2024/02/28 09:54:50;;;;;;;0.10;0.10;;;;;;;11.04;69.53;100432.75;7370492;19;20015;-64
2024/02/28 09:57:16;;;;;;;0.10;0.10;;;;;;;11.14;70.07;100434.19;7365742;19;20007;-64
2024/02/28 09:59:42;;;;;;;0.10;0.10;;;;;;;11.21;69.77;100413.13;7364028;19;20017;-64
2024/02/28 10:02:11;;;;;;;0.13;0.13;;;;;;;11.28;70.61;100420.72;7370476;19;20006;-64
2024/02/28 10:04:37;;;;;;;0.10;0.10;;;;;;;11.26;71.10;100390.31;7368144;19;20014;-64
2024/02/28 10:07:15;;;;;;;0.10;0.10;;;;;;;11.41;69.96;100395.09;7364529;19;20034;-64
2024/02/28 10:09:41;;;;;;;0.10;0.10;;;;;;;11.61;70.37;100404.94;7367987;19;20015;-64
2024/02/28 10:12:07;;;;;;;0.10;0.10;;;;;;;11.77;70.59;100407.91;7365513;19;20793;-64
2024/02/28 10:14:32;;;;;;;0.10;0.10;;;;;;;11.91;70.31;100405.69;7371043;19;20411;-64
2024/02/28 10:16:58;;;;;;;0.10;0.10;;;;;;;12.01;70.18;100396.63;7365901;19;20007;-64
2024/02/28 10:19:23;;;;;;;0.10;0.10;;;;;;;12.12;70.20;100389.31;7366907;19;20441;-64
2024/02/28 10:21:50;;;;;;;0.10;0.10;;;;;;;12.20;70.05;100386.41;7368656;19;20007;-64
2024/02/28 10:24:15;;;;;;;0.10;0.10;;;;;;;12.29;70.17;100383.47;7371452;19;20018;-64
2024/02/28 10:26:56;;;;;;;0.10;0.10;;;;;;;12.32;70.06;100374.69;7368267;19;20013;-64
2024/02/28 10:29:25;;;;;;;0.10;0.10;;;;;;;12.41;69.38;100374.31;7365157;19;20826;-64
2024/02/28 10:31:51;;;;;;;0.10;0.10;;;;;;;12.49;69.92;100377.53;7365164;19;20007;-64
2024/02/28 10:34:18;;;;;;;0.10;0.10;;;;;;;12.59;69.88;100376.31;7365428;19;20375;-64
2024/02/28 10:36:45;;;;;;;0.10;0.10;;;;;;;12.64;69.88;100377.00;7368532;19;20021;-64
2024/02/28 10:39:11;;;;;;;0.10;0.10;;;;;;;12.70;69.85;100371.53;7366259;19;20017;-64
2024/02/28 10:41:39;;;;;;;0.10;0.10;;;;;;;12.64;69.90;100356.03;7363589;19;20007;-64
2024/02/28 10:44:04;;;;;;;0.10;0.10;;;;;;;12.82;69.83;100353.63;7369732;19;20025;-64
2024/02/28 10:46:31;;;;;;;0.10;0.10;;;;;;;12.82;69.92;100345.75;7366855;19;20003;-64
2024/02/28 10:48:57;;;;;;;0.10;0.10;;;;;;;12.95;69.67;100360.13;7367515;19;20074;-65
2024/02/28 10:51:26;;;;;;;0.00;0.00;;;;;;;13.01;69.71;100365.13;7362786;19;20073;-63
2024/02/28 10:54:09;;;;;;;0.10;0.10;;;;;;;13.07;69.11;100357.03;7369399;19;20078;-64
2024/02/28 10:56:35;;;;;;;0.10;0.10;;;;;;;13.06;69.76;100336.97;7367658;19;20034;-64
2024/02/28 10:59:01;;;;;;;0.10;0.10;;;;;;;13.11;69.89;100370.88;7366500;19;20018;-64
2024/02/28 11:01:27;;;;;;;0.10;0.10;;;;;;;13.13;69.72;100356.81;7367909;19;20474;-64
2024/02/28 11:03:54;;;;;;;0.10;0.10;;;;;;;13.16;69.83;100338.31;7354823;19;20014;-63
2024/02/28 11:06:21;;;;;;;0.10;0.10;;;;;;;13.20;70.21;100349.56;7366461;19;20018;-64
2024/02/28 11:08:53;;;;;;;;;;;;;;;13.28;68.09;100342.28;7357982;19;20513;-63
2024/02/28 11:11:20;;;;;;;0.10;0.10;;;;;;;13.17;69.30;100318.19;7331067;19;19993;-64
2024/02/28 11:13:56;;;;;;;0.10;0.10;;;;;;;13.33;69.40;100347.31;7358713;19;20022;-64
2024/02/28 11:16:32;;;;;;;0.10;0.10;;;;;;;13.35;69.13;100321.91;7361833;19;20053;-63
2024/02/28 11:18:58;;;;;;;0.00;0.00;;;;;;;13.32;69.78;100322.00;7360896;19;20010;-64
2024/02/28 11:21:25;;;;;;;0.10;0.10;;;;;;;13.33;70.28;100326.34;7368756;19;20586;-64
2024/02/28 11:23:51;;;;;;;0.10;0.10;;;;;;;13.32;70.14;100306.28;7366630;19;20596;-63
2024/02/28 11:26:17;;;;;;;0.10;0.10;;;;;;;13.36;70.41;100316.59;7363905;19;20011;-64